Time;durP1;ratioP1;P1;durP2;ratioP2;P2;SDS_P1;SDS_P2;PMS_P1;PMS_P2;Temp;Humidity;BMP_temperature;BMP_pressure;BME280_temperature;BME280_humidity;BME280_pressure;Samples;Min_cycle;Max_cycle;Signal;HPM_P1;HPM_P2
2022/05/16 00:00:58;;;;;;;20.30;18.38;;;;;;;8.43;100.00;99419.25;2034707;29;20203;-73
2022/05/16 00:02:00;;;;;;;19.77;18.17;;;;;;;8.43;100.00;99421.91;2034655;29;20196;-73
2022/05/16 00:03:03;;;;;;;20.77;18.73;;;;;;;8.49;100.00;99426.91;2034688;29;20203;-73
2022/05/16 00:04:05;;;;;;;21.70;19.20;;;;;;;8.54;100.00;99427.97;2033841;29;20191;-73
2022/05/16 00:05:08;;;;;;;20.35;18.63;;;;;;;8.57;100.00;99427.41;2033933;29;20202;-72
2022/05/16 00:06:13;;;;;;;22.10;19.48;;;;;;;8.61;100.00;99425.81;2034061;29;20770;-73
2022/05/16 00:07:14;;;;;;;20.70;18.90;;;;;;;8.60;100.00;99430.31;2033711;29;20211;-72
2022/05/16 00:08:16;;;;;;;20.37;18.70;;;;;;;8.64;100.00;99430.56;2033913;29;20187;-73
2022/05/16 00:09:17;;;;;;;19.92;18.13;;;;;;;8.64;100.00;99427.91;2034765;29;20194;-73
2022/05/16 00:10:19;;;;;;;19.55;17.85;;;;;;;8.64;100.00;99431.34;2034424;29;20274;-73
2022/05/16 00:11:20;;;;;;;22.83;19.08;;;;;;;8.64;100.00;99423.38;2033727;29;20228;-72
2022/05/16 00:12:24;;;;;;;19.83;17.93;;;;;;;8.65;100.00;99422.31;2033815;29;20203;-73
2022/05/16 00:13:25;;;;;;;20.65;18.25;;;;;;;8.68;100.00;99426.28;2025294;29;20208;-72
2022/05/16 00:14:27;;;;;;;21.70;19.80;;;;;;;8.70;100.00;99426.81;2018276;29;20301;-73
2022/05/16 00:15:29;;;;;;;20.67;18.85;;;;;;;8.68;100.00;99423.59;2018258;29;20197;-72
2022/05/16 00:16:32;;;;;;;22.48;19.70;;;;;;;8.66;100.00;99423.88;2017617;29;20212;-72
2022/05/16 00:17:34;;;;;;;20.63;18.92;;;;;;;8.66;100.00;99407.13;2026212;29;20216;-73
2022/05/16 00:18:35;;;;;;;20.30;18.40;;;;;;;8.66;100.00;99423.09;2025905;29;20743;-72
2022/05/16 00:19:37;;;;;;;22.67;18.43;;;;;;;8.64;100.00;99419.91;2018099;29;20589;-72
2022/05/16 00:20:38;;;;;;;20.77;18.98;;;;;;;8.64;100.00;99422.59;2018225;29;21026;-72
2022/05/16 00:21:40;;;;;;;20.60;18.73;;;;;;;8.60;100.00;99414.38;2017594;29;20608;-72
2022/05/16 00:22:40;;;;;;;20.48;18.38;;;;;;;8.57;100.00;99420.22;2025899;29;20463;-73
2022/05/16 00:23:44;;;;;;;19.10;17.50;;;;;;;8.53;100.00;99415.72;2025974;29;20232;-72
2022/05/16 00:24:46;;;;;;;20.73;18.65;;;;;;;8.50;100.00;99422.38;2034556;29;20545;-72
2022/05/16 00:25:48;;;;;;;20.42;18.70;;;;;;;8.45;100.00;99411.78;2025512;29;20291;-73
2022/05/16 00:26:52;;;;;;;20.92;18.95;;;;;;;8.44;100.00;99416.28;2018264;29;20571;-72
2022/05/16 00:27:54;;;;;;;21.75;19.73;;;;;;;8.42;100.00;99421.06;2025969;29;20214;-72
2022/05/16 00:28:55;;;;;;;20.92;18.63;;;;;;;8.41;100.00;99422.16;2033621;29;20227;-73
2022/05/16 00:29:56;;;;;;;20.30;18.50;;;;;;;8.39;100.00;99418.97;2033826;29;20286;-72
2022/05/16 00:30:58;;;;;;;20.65;18.95;;;;;;;8.35;100.00;99423.25;2025827;29;20211;-73
2022/05/16 00:32:01;;;;;;;20.33;18.42;;;;;;;8.31;100.00;99413.38;2026158;29;20228;-73
2022/05/16 00:33:02;;;;;;;20.08;18.48;;;;;;;8.32;100.00;99417.63;2033661;29;20204;-73
2022/05/16 00:34:03;;;;;;;21.63;19.37;;;;;;;8.27;100.00;99421.13;2033615;29;20236;-72
2022/05/16 00:35:06;;;;;;;21.92;19.88;;;;;;;8.27;100.00;99420.31;2034341;29;20223;-73
2022/05/16 00:36:08;;;;;;;21.60;19.40;;;;;;;8.28;100.00;99413.94;2033781;29;20191;-73
2022/05/16 00:37:08;;;;;;;21.25;19.30;;;;;;;8.25;100.00;99415.25;2034217;29;20294;-73
2022/05/16 00:38:10;;;;;;;21.83;19.53;;;;;;;8.22;100.00;99424.59;2034276;29;20192;-72
2022/05/16 00:39:11;;;;;;;21.30;19.40;;;;;;;8.21;100.00;99416.88;2034270;29;20663;-73
2022/05/16 00:40:15;;;;;;;21.15;19.02;;;;;;;8.21;100.00;99415.03;2034222;29;20195;-73
2022/05/16 00:41:15;;;;;;;21.95;19.70;;;;;;;8.20;100.00;99416.09;2034220;29;20674;-73
2022/05/16 00:42:21;;;;;;;22.30;19.98;;;;;;;8.19;100.00;99414.50;2025761;29;20196;-73
2022/05/16 00:43:42;;;;;;;24.38;19.20;;;;;;;8.18;100.00;99412.13;2026460;29;20271;-73
2022/05/16 00:44:43;;;;;;;21.05;19.23;;;;;;;8.19;100.00;99411.03;2034419;29;20179;-72
2022/05/16 00:45:45;;;;;;;21.97;20.03;;;;;;;8.19;100.00;99406.53;2034214;29;20278;-72
2022/05/16 00:46:48;;;;;;;21.73;19.52;;;;;;;8.22;100.00;99413.94;2033522;29;20730;-73
2022/05/16 00:47:51;;;;;;;22.58;20.13;;;;;;;8.23;100.00;99412.09;2025704;29;20204;-72
2022/05/16 00:48:52;;;;;;;22.02;20.02;;;;;;;8.21;100.00;99409.69;2026194;29;20670;-73
2022/05/16 00:50:00;;;;;;;23.08;20.85;;;;;;;8.19;100.00;99411.03;2033516;29;20199;-73
2022/05/16 00:51:02;;;;;;;23.55;20.98;;;;;;;8.16;100.00;99407.06;2033184;29;20188;-72
2022/05/16 00:52:06;;;;;;;24.38;20.92;;;;;;;8.17;100.00;99416.63;2034194;29;20192;-73
2022/05/16 00:53:08;;;;;;;22.95;20.88;;;;;;;8.18;100.00;99410.25;2025711;29;20212;-73
2022/05/16 00:54:14;;;;;;;22.33;20.10;;;;;;;8.20;100.00;99417.94;2025125;29;20707;-73
2022/05/16 00:55:19;;;;;;;23.55;21.13;;;;;;;8.21;100.00;99417.69;2032623;29;20203;-73
2022/05/16 00:56:21;;;;;;;23.45;21.05;;;;;;;8.19;100.00;99408.38;2026538;29;20198;-72
2022/05/16 00:57:25;;;;;;;22.95;20.63;;;;;;;8.17;100.00;99407.88;2034070;29;20222;-73
2022/05/16 00:58:27;;;;;;;23.27;20.95;;;;;;;8.16;100.00;99409.72;2025676;29;20196;-73
2022/05/16 00:59:34;;;;;;;22.45;20.45;;;;;;;8.16;100.00;99411.56;2026010;29;20196;-73
2022/05/16 01:00:39;;;;;;;23.35;21.10;;;;;;;8.14;100.00;99405.75;2034367;29;20186;-72
2022/05/16 01:05:43;;;;;;;23.85;21.45;;;;;;;8.07;100.00;99421.97;2034125;29;20272;-73
2022/05/16 01:06:43;;;;;;;23.45;21.40;;;;;;;8.09;100.00;99419.06;2033864;29;20235;-73
2022/05/16 01:07:46;;;;;;;24.07;21.60;;;;;;;8.07;100.00;99421.97;2034064;29;20279;-72
2022/05/16 01:08:47;;;;;;;24.08;21.67;;;;;;;8.09;100.00;99424.38;2033093;29;20200;-72
2022/05/16 01:09:51;;;;;;;24.42;21.95;;;;;;;8.09;100.00;99424.38;2025628;29;20201;-72
2022/05/16 01:10:54;;;;;;;23.88;21.48;;;;;;;8.09;100.00;99425.16;2018510;29;20219;-72
2022/05/16 01:11:57;;;;;;;24.50;21.90;;;;;;;8.06;100.00;99414.25;2026009;29;20535;-72
2022/05/16 01:12:58;;;;;;;24.50;21.50;;;;;;;8.07;100.00;99421.97;2034058;29;20200;-72
2022/05/16 01:14:00;;;;;;;24.05;21.65;;;;;;;8.05;100.00;99418.78;2025682;29;20215;-73
2022/05/16 01:15:04;;;;;;;25.00;22.70;;;;;;;8.03;100.00;99420.94;2018031;29;20292;-73
2022/05/16 01:16:07;;;;;;;23.95;21.67;;;;;;;8.03;100.00;99414.81;2026258;29;20200;-72
2022/05/16 01:17:10;;;;;;;24.35;21.95;;;;;;;8.01;100.00;99420.41;2034097;29;20226;-72
2022/05/16 01:18:15;;;;;;;24.55;22.25;;;;;;;7.98;100.00;99414.81;2025219;29;20208;-73
2022/05/16 01:19:16;;;;;;;24.25;22.00;;;;;;;7.99;100.00;99416.41;2026019;29;20197;-72
2022/05/16 01:20:18;;;;;;;24.80;21.93;;;;;;;7.96;100.00;99419.63;2025558;29;20240;-72
2022/05/16 01:21:27;;;;;;;24.48;22.23;;;;;;;7.96;100.00;99428.38;2025310;29;20228;-73
2022/05/16 01:22:33;;;;;;;24.58;22.25;;;;;;;7.95;100.00;99421.47;2025596;29;20203;-72
2022/05/16 01:23:41;;;;;;;24.90;22.40;;;;;;;7.97;100.00;99429.16;2026146;29;20734;-72
2022/05/16 01:24:44;;;;;;;23.95;21.50;;;;;;;8.00;100.00;99428.66;2033690;29;20593;-72
2022/05/16 01:25:49;;;;;;;25.48;22.90;;;;;;;7.97;100.00;99427.31;2034232;29;20664;-73
2022/05/16 01:26:52;;;;;;;25.05;22.48;;;;;;;7.97;100.00;99429.97;2033029;29;20319;-73
2022/05/16 01:27:55;;;;;;;25.02;21.40;;;;;;;8.02;100.00;99429.16;2033599;29;20651;-73
2022/05/16 01:28:57;;;;;;;24.58;21.52;;;;;;;8.00;100.00;99434.75;2033964;29;20569;-72
2022/05/16 01:29:58;;;;;;;26.23;20.75;;;;;;;7.98;100.00;99431.56;2033437;29;20199;-73
2022/05/16 01:31:01;;;;;;;23.97;21.73;;;;;;;8.02;100.00;99437.16;2033585;29;20650;-73
2022/05/16 01:32:02;;;;;;;24.60;22.05;;;;;;;8.01;100.00;99440.88;2034137;29;20202;-73
2022/05/16 01:33:04;;;;;;;23.75;21.45;;;;;;;7.98;100.00;99438.72;2025024;29;20714;-73
2022/05/16 01:34:05;;;;;;;24.52;21.20;;;;;;;7.96;100.00;99433.69;2025617;29;20612;-73
2022/05/16 01:35:08;;;;;;;24.20;21.63;;;;;;;7.94;100.00;99428.66;2034145;29;20191;-72
2022/05/16 01:36:10;;;;;;;24.05;21.60;;;;;;;7.93;100.00;99437.69;2025264;29;20549;-73
2022/05/16 01:37:14;;;;;;;23.70;21.13;;;;;;;7.92;100.00;99433.44;2025681;29;20192;-72
2022/05/16 01:38:22;;;;;;;23.23;21.13;;;;;;;7.89;100.00;99431.31;2034091;29;20655;-72
2022/05/16 01:39:24;;;;;;;22.98;20.73;;;;;;;7.87;100.00;99427.34;2034038;29;20565;-72
2022/05/16 01:40:24;;;;;;;24.27;20.80;;;;;;;7.84;100.00;99433.19;2033962;29;20286;-72
2022/05/16 01:41:27;;;;;;;23.97;21.47;;;;;;;7.80;100.00;99432.91;2034207;29;20195;-72
2022/05/16 01:42:28;;;;;;;22.40;20.40;;;;;;;7.77;100.00;99432.66;2033982;29;20677;-73
2022/05/16 01:43:31;;;;;;;24.27;21.57;;;;;;;7.74;100.00;99433.22;2033977;29;20188;-73
2022/05/16 01:44:35;;;;;;;22.67;20.35;;;;;;;7.73;100.00;99435.06;2034078;29;20283;-72
2022/05/16 01:45:41;;;;;;;22.48;20.27;;;;;;;7.70;100.00;99434.78;2034196;29;20183;-72
2022/05/16 01:46:44;;;;;;;23.10;20.95;;;;;;;7.68;100.00;99435.06;2033905;29;20203;-73
2022/05/16 01:47:45;;;;;;;22.48;20.42;;;;;;;7.65;100.00;99433.75;2033939;29;20565;-73
2022/05/16 01:48:47;;;;;;;22.70;20.47;;;;;;;7.59;100.00;99428.72;2033959;29;20191;-72
2022/05/16 01:49:48;;;;;;;23.48;21.08;;;;;;;7.57;100.00;99433.50;2033279;29;20203;-73
2022/05/16 01:50:51;;;;;;;22.90;20.48;;;;;;;7.52;100.00;99426.31;2033313;29;20237;-73
2022/05/16 01:51:52;;;;;;;23.17;20.92;;;;;;;7.48;100.00;99417.31;2033207;29;20718;-72
2022/05/16 01:52:54;;;;;;;20.60;18.67;;;;;;;7.44;100.00;99423.41;2034002;29;20545;-73
2022/05/16 01:53:56;;;;;;;20.80;18.70;;;;;;;7.40;100.00;99427.66;2034035;29;20219;-72
2022/05/16 01:55:00;;;;;;;19.92;18.10;;;;;;;7.37;100.00;99421.78;2025450;29;20212;-73
2022/05/16 01:56:04;;;;;;;22.67;19.55;;;;;;;7.33;100.00;99418.09;2026351;29;20188;-73
2022/05/16 01:57:05;;;;;;;21.52;19.42;;;;;;;7.30;100.00;99418.63;2025447;29;20199;-73
2022/05/16 01:58:07;;;;;;;21.00;19.00;;;;;;;7.27;100.00;99421.00;2017215;29;20212;-72
2022/05/16 01:59:10;;;;;;;21.23;19.23;;;;;;;7.24;100.00;99429.50;2017492;29;20197;-73
2022/05/16 02:00:13;;;;;;;20.50;18.65;;;;;;;7.22;100.00;99418.38;2025675;29;20200;-72
2022/05/16 02:01:16;;;;;;;21.77;19.63;;;;;;;7.19;100.00;99422.31;2034102;29;20643;-72
2022/05/16 02:02:16;;;;;;;20.80;18.65;;;;;;;7.16;100.00;99420.22;2033204;29;20203;-73
2022/05/16 02:03:19;;;;;;;21.87;18.20;;;;;;;7.16;100.00;99420.22;2033426;29;20192;-72
2022/05/16 02:04:19;;;;;;;21.05;18.92;;;;;;;7.15;100.00;99415.16;2033853;29;20270;-73
2022/05/16 02:05:23;;;;;;;21.33;19.30;;;;;;;7.20;100.00;99423.13;2033236;29;20226;-72
2022/05/16 02:06:25;;;;;;;21.75;19.58;;;;;;;7.16;100.00;99422.88;2032910;29;20628;-72
2022/05/16 02:07:28;;;;;;;20.50;18.60;;;;;;;7.15;100.00;99421.28;2033860;29;20219;-72
2022/05/16 02:08:28;;;;;;;22.15;19.55;;;;;;;7.17;100.00;99419.16;2025429;29;20208;-72
2022/05/16 02:09:32;;;;;;;22.13;19.40;;;;;;;7.15;100.00;99417.81;2025645;29;20196;-73
2022/05/16 02:10:34;;;;;;;21.85;19.60;;;;;;;7.11;100.00;99416.75;2025384;29;20227;-73
2022/05/16 02:11:36;;;;;;;22.88;18.90;;;;;;;7.13;100.00;99412.00;2017837;29;20205;-72
2022/05/16 02:12:37;;;;;;;21.88;19.67;;;;;;;7.11;100.00;99406.13;2025553;29;20200;-73
2022/05/16 02:13:40;;;;;;;21.50;19.33;;;;;;;7.12;100.00;99410.38;2034018;29;20195;-72
2022/05/16 02:14:41;;;;;;;22.13;19.75;;;;;;;7.13;100.00;99412.00;2033175;29;20478;-72
2022/05/16 02:15:45;;;;;;;21.67;19.47;;;;;;;7.10;100.00;99408.00;2033324;29;20187;-73
2022/05/16 02:16:49;;;;;;;22.27;20.13;;;;;;;7.12;100.00;99415.69;2034602;29;20196;-72
2022/05/16 02:17:52;;;;;;;22.38;19.98;;;;;;;7.14;100.00;99424.19;2035406;29;20211;-72
2022/05/16 02:18:53;;;;;;;22.38;19.75;;;;;;;7.14;100.00;99416.25;2026200;29;20303;-72
2022/05/16 02:19:57;;;;;;;24.97;19.60;;;;;;;7.15;100.00;99410.66;2026889;29;20197;-73
2022/05/16 02:24:55;;;;;;;21.83;19.52;;;;;;;7.17;100.00;99424.44;2034974;29;20173;-72
2022/05/16 02:25:57;;;;;;;23.02;20.70;;;;;;;7.16;100.00;99417.56;2035245;29;20196;-72
2022/05/16 02:27:00;;;;;;;23.85;20.42;;;;;;;7.13;100.00;99418.09;2035287;29;20195;-72
2022/05/16 02:28:01;;;;;;;22.25;19.85;;;;;;;7.14;100.00;99421.53;2035231;29;20196;-73
2022/05/16 02:29:03;;;;;;;21.70;19.33;;;;;;;7.09;100.00;99411.72;2035269;29;20212;-72
2022/05/16 02:30:06;;;;;;;21.65;19.58;;;;;;;7.11;100.00;99422.84;2035156;29;20250;-72
2022/05/16 02:31:07;;;;;;;22.17;19.80;;;;;;;7.11;100.00;99420.19;2035177;29;20223;-73
2022/05/16 02:32:10;;;;;;;25.85;20.08;;;;;;;7.08;100.00;99415.44;2026060;29;20284;-72
2022/05/16 02:33:14;;;;;;;23.52;20.20;;;;;;;7.08;100.00;99415.44;2027012;29;20199;-72
2022/05/16 02:34:19;;;;;;;22.40;19.85;;;;;;;7.05;100.00;99419.41;2026392;29;20196;-74
2022/05/16 02:35:20;;;;;;;23.05;19.90;;;;;;;7.04;100.00;99417.81;2026673;29;20208;-72
2022/05/16 02:36:21;;;;;;;21.67;19.50;;;;;;;7.03;100.00;99416.19;2018490;29;20232;-73
2022/05/16 02:37:23;;;;;;;22.02;19.65;;;;;;;7.01;100.00;99415.69;2018573;29;20524;-73
2022/05/16 02:38:26;;;;;;;29.42;20.42;;;;;;;7.02;100.00;99419.13;2026785;29;20192;-73
2022/05/16 02:39:27;;;;;;;21.52;19.38;;;;;;;7.03;100.00;99426.81;2026603;29;20624;-72
2022/05/16 02:40:32;;;;;;;21.23;19.30;;;;;;;7.22;100.00;99421.81;2026947;29;20196;-73
2022/05/16 02:41:33;;;;;;;22.08;19.02;;;;;;;7.27;100.00;99431.63;2026686;29;20192;-73
2022/05/16 02:42:37;;;;;;;24.23;19.50;;;;;;;7.25;100.00;99423.94;2026749;29;20299;-72
2022/05/16 02:43:38;;;;;;;21.40;19.23;;;;;;;7.24;100.00;99424.19;2027514;29;20208;-73
2022/05/16 02:44:42;;;;;;;21.37;19.23;;;;;;;7.25;100.00;99431.09;2027509;29;20200;-73
2022/05/16 02:45:44;;;;;;;22.08;19.85;;;;;;;7.25;100.00;99437.19;2018518;29;20208;-73
2022/05/16 02:46:45;;;;;;;21.45;19.27;;;;;;;7.25;100.00;99429.25;2019044;29;20672;-73
2022/05/16 02:47:46;;;;;;;24.00;19.73;;;;;;;7.24;100.00;99438.25;2027263;29;20192;-73
2022/05/16 02:48:50;;;;;;;22.43;20.17;;;;;;;7.27;100.00;99434.28;2026283;29;20201;-72
2022/05/16 02:49:51;;;;;;;22.58;19.65;;;;;;;7.27;100.00;99440.38;2026699;29;20649;-73
2022/05/16 02:50:52;;;;;;;21.17;19.20;;;;;;;7.26;100.00;99438.00;2026786;29;20192;-72
2022/05/16 02:51:53;;;;;;;22.40;18.98;;;;;;;7.27;100.00;99444.91;2035070;29;20451;-73
2022/05/16 02:52:55;;;;;;;20.60;18.40;;;;;;;7.29;100.00;99440.91;2035135;29;20223;-73
2022/05/16 02:53:56;;;;;;;21.90;19.60;;;;;;;7.30;100.00;99441.72;2035244;29;20200;-72
2022/05/16 02:55:00;;;;;;;22.50;19.13;;;;;;;7.32;100.00;99437.75;2034972;29;20234;-73
2022/05/16 02:56:05;;;;;;;22.25;20.05;;;;;;;7.34;100.00;99448.88;2035047;29;20203;-73
2022/05/16 02:57:10;;;;;;;22.38;20.17;;;;;;;7.35;100.00;99447.81;2035172;29;20180;-73
2022/05/16 02:58:12;;;;;;;22.23;20.08;;;;;;;7.34;100.00;99440.91;2035095;29;20219;-73
2022/05/16 02:59:14;;;;;;;26.30;22.83;;;;;;;7.37;100.00;99442.25;2035019;29;20358;-72
2022/05/16 03:00:16;;;;;;;24.80;22.17;;;;;;;7.32;100.00;99443.03;2035187;29;20721;-73
2022/05/16 03:01:18;;;;;;;23.23;20.98;;;;;;;7.30;100.00;99442.53;2035159;29;20539;-72
2022/05/16 03:02:20;;;;;;;25.80;21.65;;;;;;;7.29;100.00;99440.09;2034294;29;20210;-73
2022/05/16 03:03:22;;;;;;;24.80;21.90;;;;;;;7.29;100.00;99442.75;2033908;29;20203;-73
2022/05/16 03:04:23;;;;;;;26.38;22.95;;;;;;;7.31;100.00;99445.97;2034434;29;20280;-73
2022/05/16 03:05:26;;;;;;;29.13;22.50;;;;;;;7.26;100.00;99444.09;2034944;29;20204;-73
2022/05/16 03:06:28;;;;;;;29.48;23.73;;;;;;;7.28;100.00;99444.63;2034528;29;20230;-73
2022/05/16 03:07:31;;;;;;;29.38;23.10;;;;;;;7.28;100.00;99443.81;2025933;29;20750;-73
2022/05/16 03:08:32;;;;;;;27.17;23.85;;;;;;;7.27;100.00;99439.59;2026523;29;20200;-73
2022/05/16 03:09:33;;;;;;;26.60;23.85;;;;;;;7.27;100.00;99444.91;2034392;29;20736;-73
2022/05/16 03:10:36;;;;;;;24.10;21.52;;;;;;;7.24;100.00;99437.47;2034931;29;20195;-73
2022/05/16 03:11:38;;;;;;;23.85;21.42;;;;;;;7.23;100.00;99439.34;2034888;29;20196;-73
2022/05/16 03:12:42;;;;;;;24.85;22.13;;;;;;;7.24;100.00;99440.91;2035079;29;20196;-73
2022/05/16 03:13:43;;;;;;;24.63;22.25;;;;;;;7.20;100.00;99442.50;2033867;29;20231;-72
2022/05/16 03:14:45;;;;;;;23.00;20.70;;;;;;;7.15;100.00;99441.72;2034335;29;20215;-73
2022/05/16 03:15:46;;;;;;;24.13;21.50;;;;;;;7.12;100.00;99450.97;2034849;29;20192;-73
2022/05/16 03:16:48;;;;;;;24.63;22.00;;;;;;;7.08;100.00;99441.97;2034868;29;20198;-73
2022/05/16 03:17:49;;;;;;;22.33;19.90;;;;;;;7.05;100.00;99439.84;2034111;29;20294;-73
2022/05/16 03:18:51;;;;;;;23.77;19.90;;;;;;;7.06;100.00;99450.19;2034305;29;20195;-73
2022/05/16 03:19:52;;;;;;;22.10;19.85;;;;;;;6.99;100.00;99438.22;2034853;29;20550;-73
2022/05/16 03:20:54;;;;;;;22.88;20.42;;;;;;;7.01;100.00;99450.16;2034334;29;20195;-73
2022/05/16 03:21:55;;;;;;;21.65;19.45;;;;;;;7.02;100.00;99450.97;2034154;29;20235;-73
2022/05/16 03:22:56;;;;;;;21.67;19.57;;;;;;;6.97;100.00;99446.47;2034282;29;20203;-72
2022/05/16 03:23:58;;;;;;;22.65;20.33;;;;;;;6.97;100.00;99443.00;2026338;29;20204;-73
2022/05/16 03:25:00;;;;;;;22.40;20.00;;;;;;;6.97;100.00;99445.66;2018794;29;20642;-72
2022/05/16 03:26:01;;;;;;;23.20;20.97;;;;;;;6.96;100.00;99450.16;2026459;29;20244;-72
2022/05/16 03:27:05;;;;;;;23.02;20.83;;;;;;;6.96;100.00;99446.72;2034783;29;20188;-73
2022/05/16 03:28:07;;;;;;;25.42;21.60;;;;;;;6.96;100.00;99449.38;2034004;29;20662;-72
2022/05/16 03:29:11;;;;;;;24.30;21.90;;;;;;;6.97;100.00;99458.91;2026067;29;20216;-73
2022/05/16 03:30:13;;;;;;;24.20;21.80;;;;;;;6.96;100.00;99454.69;2026770;29;20195;-73
2022/05/16 03:31:14;;;;;;;23.92;21.48;;;;;;;6.94;100.00;99462.88;2034757;29;20199;-73
2022/05/16 03:32:16;;;;;;;24.53;21.87;;;;;;;6.89;100.00;99456.78;2034719;29;20257;-72
2022/05/16 03:33:17;;;;;;;25.20;22.33;;;;;;;6.91;100.00;99458.09;2035052;29;20239;-73
2022/05/16 03:34:19;;;;;;;24.50;22.00;;;;;;;6.97;100.00;99458.91;2042564;29;20274;-73
2022/05/16 03:35:21;;;;;;;25.23;22.45;;;;;;;6.98;100.00;99457.88;2042609;29;20294;-73
2022/05/16 03:36:24;;;;;;;30.52;23.65;;;;;;;6.98;100.00;99460.50;2033319;29;20346;-73
2022/05/16 03:37:25;;;;;;;28.17;23.38;;;;;;;6.99;100.00;99460.25;2034293;29;20561;-73
2022/05/16 03:41:07;;;;;;;26.88;23.98;;;;;;;7.05;100.00;99459.22;2042570;29;20183;-73
2022/05/16 03:42:11;;;;;;;32.15;23.88;;;;;;;7.06;100.00;99462.66;2042583;29;20278;-73
2022/05/16 03:43:13;;;;;;;25.40;22.80;;;;;;;7.10;100.00;99461.06;2042542;29;20206;-73
2022/05/16 03:44:15;;;;;;;26.33;23.58;;;;;;;7.11;100.00;99460.00;2042690;29;20226;-73
2022/05/16 03:45:16;;;;;;;27.05;23.55;;;;;;;7.11;100.00;99460.00;2042494;29;20558;-73
2022/05/16 03:46:18;;;;;;;26.35;23.60;;;;;;;7.14;100.00;99456.84;2042663;29;20187;-73
2022/05/16 03:47:18;;;;;;;29.13;23.23;;;;;;;7.16;100.00;99453.91;2042500;29;20218;-73
2022/05/16 03:48:20;;;;;;;27.37;22.63;;;;;;;7.18;100.00;99452.56;2042579;29;20191;-72
2022/05/16 03:49:22;;;;;;;27.27;23.13;;;;;;;7.17;100.00;99455.50;2033992;29;20686;-73
2022/05/16 03:50:26;;;;;;;25.83;22.67;;;;;;;7.20;100.00;99452.31;2034167;29;20537;-72
2022/05/16 03:51:27;;;;;;;28.48;22.70;;;;;;;7.21;100.00;99452.06;2032659;29;20310;-73
2022/05/16 03:52:29;;;;;;;24.70;22.03;;;;;;;7.22;100.00;99444.91;2026093;29;20207;-73
2022/05/16 03:53:30;;;;;;;28.63;23.60;;;;;;;7.20;100.00;99444.34;2026163;29;20260;-73
2022/05/16 03:54:31;;;;;;;28.70;23.27;;;;;;;7.24;100.00;99450.75;2034090;29;20195;-72
2022/05/16 03:55:33;;;;;;;25.23;22.58;;;;;;;7.25;100.00;99445.16;2042453;29;20194;-73
2022/05/16 03:56:36;;;;;;;24.67;22.13;;;;;;;7.28;100.00;99447.28;2042402;29;20195;-73
2022/05/16 03:57:42;;;;;;;29.50;22.48;;;;;;;7.29;100.00;99448.06;2042424;29;20202;-72
2022/05/16 03:58:44;;;;;;;31.02;22.67;;;;;;;7.32;100.00;99451.00;2042472;29;20195;-73
2022/05/16 03:59:44;;;;;;;25.67;22.52;;;;;;;7.32;100.00;99448.34;2042401;29;20195;-73
2022/05/16 04:00:46;;;;;;;25.43;22.77;;;;;;;7.35;100.00;99453.13;2042499;29;20219;-72
2022/05/16 04:01:52;;;;;;;32.47;23.08;;;;;;;7.42;100.00;99449.41;2041345;29;20199;-73
2022/05/16 04:02:56;;;;;;;26.35;23.55;;;;;;;7.43;100.00;99451.00;2042058;29;20242;-73
2022/05/16 04:03:59;;;;;;;31.38;23.88;;;;;;;7.45;100.00;99456.84;2042360;29;20262;-73
2022/05/16 04:05:02;;;;;;;26.50;23.38;;;;;;;7.45;100.00;99452.31;2033771;29;20303;-73
2022/05/16 04:06:03;;;;;;;36.20;23.48;;;;;;;7.49;100.00;99456.06;2033476;29;20216;-73
2022/05/16 04:07:05;;;;;;;29.52;23.50;;;;;;;7.49;100.00;99455.25;2033226;29;20287;-73
2022/05/16 04:08:06;;;;;;;28.50;22.65;;;;;;;7.53;100.00;99453.66;2034136;29;20539;-73
2022/05/16 04:09:09;;;;;;;29.10;23.95;;;;;;;7.54;100.00;99456.03;2033794;29;20195;-73
2022/05/16 04:10:12;;;;;;;26.20;23.58;;;;;;;7.58;100.00;99453.66;2034237;29;20234;-73
2022/05/16 04:11:16;;;;;;;28.73;23.70;;;;;;;7.59;100.00;99455.25;2033724;29;20203;-72
2022/05/16 04:12:16;;;;;;;27.65;23.10;;;;;;;7.65;100.00;99462.16;2041885;29;20286;-73
2022/05/16 04:13:19;;;;;;;26.80;23.77;;;;;;;7.67;100.00;99451.28;2048943;29;20209;-73
2022/05/16 04:14:20;;;;;;;26.23;23.45;;;;;;;7.69;100.00;99457.91;2041709;29;20206;-73
2022/05/16 04:15:22;;;;;;;25.47;22.77;;;;;;;7.76;100.00;99466.41;2042363;29;20195;-73
2022/05/16 04:16:23;;;;;;;27.52;23.17;;;;;;;7.88;100.00;99466.13;2041618;29;20255;-73
2022/05/16 04:17:26;;;;;;;25.90;23.20;;;;;;;7.91;100.00;99466.41;2041265;29;20298;-73
2022/05/16 04:18:29;;;;;;;25.73;22.85;;;;;;;8.00;100.00;99461.34;2041631;29;20230;-72
2022/05/16 04:19:31;;;;;;;25.02;22.33;;;;;;;8.09;100.00;99464.25;2042328;29;20198;-73
2022/05/16 04:20:32;;;;;;;26.00;23.40;;;;;;;8.09;100.00;99456.25;2042238;29;20195;-73
2022/05/16 04:21:33;;;;;;;24.70;22.20;;;;;;;8.16;100.00;99462.88;2041897;29;20686;-73
2022/05/16 04:22:34;;;;;;;24.73;22.00;;;;;;;8.20;100.00;99463.94;2042328;29;20199;-73
2022/05/16 04:23:38;;;;;;;25.93;23.33;;;;;;;8.24;100.00;99458.84;2042190;29;20742;-73
2022/05/16 04:24:39;;;;;;;25.23;22.48;;;;;;;8.26;100.00;99453.31;2042217;29;20199;-73
2022/05/16 04:25:43;;;;;;;25.23;22.90;;;;;;;8.32;100.00;99466.28;2033643;29;20200;-72
2022/05/16 04:26:46;;;;;;;27.67;23.13;;;;;;;8.33;100.00;99461.75;2026219;29;20672;-73
2022/05/16 04:27:46;;;;;;;26.52;23.35;;;;;;;8.37;100.00;99463.66;2033782;29;20200;-73
2022/05/16 04:28:49;;;;;;;30.23;23.17;;;;;;;8.39;100.00;99468.69;2033579;29;20287;-72
2022/05/16 04:29:50;;;;;;;27.58;22.60;;;;;;;8.31;100.00;99466.56;2033852;29;20200;-73
2022/05/16 04:30:54;;;;;;;25.73;22.57;;;;;;;8.25;100.00;99459.66;2042213;29;20214;-72
2022/05/16 04:31:55;;;;;;;27.55;23.23;;;;;;;8.27;100.00;99468.19;2042182;29;20427;-73
2022/05/16 04:32:56;;;;;;;26.00;23.27;;;;;;;8.27;100.00;99462.84;2033610;29;20203;-73
2022/05/16 04:33:57;;;;;;;26.25;23.00;;;;;;;8.27;100.00;99466.31;2033594;29;20230;-73
2022/05/16 04:34:59;;;;;;;25.70;23.07;;;;;;;8.32;100.00;99460.97;2042184;29;20694;-72
2022/05/16 04:36:00;;;;;;;25.10;22.67;;;;;;;8.35;100.00;99465.00;2041686;29;20521;-73
2022/05/16 04:37:03;;;;;;;25.43;22.77;;;;;;;8.38;100.00;99459.91;2033598;29;20221;-73
2022/05/16 04:38:08;;;;;;;26.25;23.50;;;;;;;8.41;100.00;99470.00;2034420;29;20180;-73
2022/05/16 04:39:11;;;;;;;26.08;23.58;;;;;;;8.45;100.00;99470.28;2041944;29;20650;-73
2022/05/16 04:40:14;;;;;;;26.23;23.15;;;;;;;8.45;100.00;99468.41;2041997;29;20206;-73
2022/05/16 04:42:43;;;;;;;25.75;23.13;;;;;;;8.55;100.00;99469.44;2033654;29;20635;-73
2022/05/16 04:43:44;;;;;;;29.45;23.27;;;;;;;8.61;100.00;99463.03;2034949;29;20192;-73
2022/05/16 04:44:49;;;;;;;27.50;22.43;;;;;;;8.66;100.00;99468.31;2042037;29;20270;-73
2022/05/16 04:45:53;;;;;;;29.90;21.25;;;;;;;8.68;100.00;99468.84;2032828;29;20207;-73
2022/05/16 04:46:56;;;;;;;23.13;20.50;;;;;;;8.71;100.00;99455.81;2034289;29;20191;-73
2022/05/16 04:47:59;;;;;;;25.10;20.48;;;;;;;8.73;100.00;99461.63;2042023;29;20190;-73
2022/05/16 04:49:02;;;;;;;22.85;20.50;;;;;;;8.80;100.00;99464.00;2042011;29;20191;-73
2022/05/16 04:50:04;;;;;;;24.35;21.00;;;;;;;8.82;100.00;99461.84;2042266;29;20195;-72
2022/05/16 04:51:06;;;;;;;22.73;20.42;;;;;;;8.84;100.00;99457.06;2041530;29;20183;-73
2022/05/16 04:52:11;;;;;;;22.08;19.75;;;;;;;8.89;100.00;99464.22;2042169;29;20609;-73
2022/05/16 04:53:14;;;;;;;21.95;19.48;;;;;;;8.93;100.00;99462.59;2033551;29;20208;-73
2022/05/16 04:54:16;;;;;;;22.67;20.23;;;;;;;8.96;100.00;99465.50;2026033;29;20256;-73
2022/05/16 04:55:18;;;;;;;23.10;20.60;;;;;;;9.00;100.00;99460.44;2025915;29;20199;-73
2022/05/16 04:56:19;;;;;;;23.55;20.23;;;;;;;9.04;100.00;99459.63;2033743;29;20192;-73
2022/05/16 04:57:21;;;;;;;22.63;20.47;;;;;;;9.07;100.00;99460.91;2033540;29;20208;-73
2022/05/16 04:58:24;;;;;;;22.30;20.10;;;;;;;9.13;100.00;99461.69;2033631;29;20196;-73
2022/05/16 04:59:29;;;;;;;22.10;20.10;;;;;;;9.13;100.00;99457.16;2042189;29;20195;-73